sensor_id;sensor_type;location;lat;lon;timestamp;P1;durP1;ratioP1;P2;durP2;ratioP2
17991;SDS011;9121;50.926;5.340;2022-07-23T00:00:12;14.18;;;8.38;;
17991;SDS011;9121;50.926;5.340;2022-07-23T00:02:43;16.67;;;8.18;;
17991;SDS011;9121;50.926;5.340;2022-07-23T00:05:12;14.25;;;8.32;;
17991;SDS011;9121;50.926;5.340;2022-07-23T00:07:39;12.18;;;7.68;;
17991;SDS011;9121;50.926;5.340;2022-07-23T00:10:06;17.30;;;8.70;;
17991;SDS011;9121;50.926;5.340;2022-07-23T00:12:34;15.02;;;8.80;;
17991;SDS011;9121;50.926;5.340;2022-07-23T00:15:03;17.10;;;8.55;;
17991;SDS011;9121;50.926;5.340;2022-07-23T00:17:31;14.32;;;8.57;;
17991;SDS011;9121;50.926;5.340;2022-07-23T00:19:59;15.98;;;9.07;;
17991;SDS011;9121;50.926;5.340;2022-07-23T00:22:26;13.93;;;8.43;;
17991;SDS011;9121;50.926;5.340;2022-07-23T00:24:54;18.05;;;8.20;;
17991;SDS011;9121;50.926;5.340;2022-07-23T00:27:21;19.83;;;9.43;;
17991;SDS011;9121;50.926;5.340;2022-07-23T00:29:48;15.38;;;8.48;;
17991;SDS011;9121;50.926;5.340;2022-07-23T00:32:16;14.95;;;8.43;;
17991;SDS011;9121;50.926;5.340;2022-07-23T00:34:43;14.80;;;7.75;;
17991;SDS011;9121;50.926;5.340;2022-07-23T00:37:11;12.43;;;8.68;;
17991;SDS011;9121;50.926;5.340;2022-07-23T00:39:38;14.32;;;8.85;;
17991;SDS011;9121;50.926;5.340;2022-07-23T00:42:05;15.60;;;8.70;;
17991;SDS011;9121;50.926;5.340;2022-07-23T00:44:32;15.30;;;8.25;;
17991;SDS011;9121;50.926;5.340;2022-07-23T00:46:59;15.05;;;8.82;;
17991;SDS011;9121;50.926;5.340;2022-07-23T00:49:26;14.88;;;8.88;;
17991;SDS011;9121;50.926;5.340;2022-07-23T00:51:55;17.38;;;9.57;;
17991;SDS011;9121;50.926;5.340;2022-07-23T00:54:25;15.15;;;9.05;;
17991;SDS011;9121;50.926;5.340;2022-07-23T00:56:53;17.38;;;8.73;;
17991;SDS011;9121;50.926;5.340;2022-07-23T00:59:20;16.95;;;8.77;;
17991;SDS011;9121;50.926;5.340;2022-07-23T01:01:47;18.35;;;9.50;;
17991;SDS011;9121;50.926;5.340;2022-07-23T01:04:14;16.08;;;8.95;;
17991;SDS011;9121;50.926;5.340;2022-07-23T01:06:41;14.75;;;9.32;;
17991;SDS011;9121;50.926;5.340;2022-07-23T01:09:10;18.08;;;9.38;;
17991;SDS011;9121;50.926;5.340;2022-07-23T01:11:38;13.35;;;9.13;;
17991;SDS011;9121;50.926;5.340;2022-07-23T01:14:15;15.88;;;8.93;;
17991;SDS011;9121;50.926;5.340;2022-07-23T01:16:43;18.73;;;9.57;;
17991;SDS011;9121;50.926;5.340;2022-07-23T01:19:11;14.98;;;10.00;;
17991;SDS011;9121;50.926;5.340;2022-07-23T01:21:40;14.32;;;9.52;;
17991;SDS011;9121;50.926;5.340;2022-07-23T01:24:09;13.48;;;9.27;;
17991;SDS011;9121;50.926;5.340;2022-07-23T01:26:37;17.52;;;9.65;;
17991;SDS011;9121;50.926;5.340;2022-07-23T01:29:05;14.20;;;9.00;;
17991;SDS011;9121;50.926;5.340;2022-07-23T01:31:32;17.60;;;9.15;;
17991;SDS011;9121;50.926;5.340;2022-07-23T01:33:59;15.13;;;9.32;;
17991;SDS011;9121;50.926;5.340;2022-07-23T01:36:26;15.90;;;9.10;;
17991;SDS011;9121;50.926;5.340;2022-07-23T01:38:53;13.80;;;9.35;;
17991;SDS011;9121;50.926;5.340;2022-07-23T01:41:21;20.17;;;9.50;;
17991;SDS011;9121;50.926;5.340;2022-07-23T01:43:48;14.65;;;9.48;;
17991;SDS011;9121;50.926;5.340;2022-07-23T01:46:15;17.15;;;10.27;;
17991;SDS011;9121;50.926;5.340;2022-07-23T01:48:42;14.80;;;9.05;;
17991;SDS011;9121;50.926;5.340;2022-07-23T01:51:09;15.70;;;9.65;;
17991;SDS011;9121;50.926;5.340;2022-07-23T01:53:36;14.82;;;9.65;;
17991;SDS011;9121;50.926;5.340;2022-07-23T01:56:03;15.23;;;8.80;;
17991;SDS011;9121;50.926;5.340;2022-07-23T01:58:32;15.45;;;9.85;;
17991;SDS011;9121;50.926;5.340;2022-07-23T02:00:58;20.23;;;10.00;;
17991;SDS011;9121;50.926;5.340;2022-07-23T02:03:26;15.45;;;9.75;;
17991;SDS011;9121;50.926;5.340;2022-07-23T02:05:53;15.70;;;10.18;;
17991;SDS011;9121;50.926;5.340;2022-07-23T02:08:20;19.58;;;9.63;;
17991;SDS011;9121;50.926;5.340;2022-07-23T02:10:47;13.75;;;9.15;;
17991;SDS011;9121;50.926;5.340;2022-07-23T02:13:16;19.58;;;9.95;;
17991;SDS011;9121;50.926;5.340;2022-07-23T02:15:44;15.93;;;9.13;;
17991;SDS011;9121;50.926;5.340;2022-07-23T02:18:11;14.63;;;9.20;;
17991;SDS011;9121;50.926;5.340;2022-07-23T02:20:38;17.70;;;10.32;;
17991;SDS011;9121;50.926;5.340;2022-07-23T02:23:05;22.10;;;10.75;;
17991;SDS011;9121;50.926;5.340;2022-07-23T02:25:32;21.92;;;10.43;;
17991;SDS011;9121;50.926;5.340;2022-07-23T02:27:59;14.48;;;9.85;;
17991;SDS011;9121;50.926;5.340;2022-07-23T02:30:27;21.55;;;10.38;;
17991;SDS011;9121;50.926;5.340;2022-07-23T02:32:55;18.23;;;10.68;;
17991;SDS011;9121;50.926;5.340;2022-07-23T02:35:22;15.90;;;10.05;;
17991;SDS011;9121;50.926;5.340;2022-07-23T02:37:49;17.40;;;9.98;;
17991;SDS011;9121;50.926;5.340;2022-07-23T02:40:16;20.48;;;10.35;;
17991;SDS011;9121;50.926;5.340;2022-07-23T02:42:43;18.73;;;10.27;;
17991;SDS011;9121;50.926;5.340;2022-07-23T02:45:11;20.42;;;10.45;;
17991;SDS011;9121;50.926;5.340;2022-07-23T02:47:38;20.48;;;10.80;;
17991;SDS011;9121;50.926;5.340;2022-07-23T02:50:07;17.25;;;10.30;;
17991;SDS011;9121;50.926;5.340;2022-07-23T02:52:34;16.70;;;10.70;;
17991;SDS011;9121;50.926;5.340;2022-07-23T02:55:01;18.83;;;11.02;;
17991;SDS011;9121;50.926;5.340;2022-07-23T02:57:28;21.70;;;11.73;;
17991;SDS011;9121;50.926;5.340;2022-07-23T02:59:55;17.98;;;11.38;;
17991;SDS011;9121;50.926;5.340;2022-07-23T03:02:21;16.13;;;10.50;;
17991;SDS011;9121;50.926;5.340;2022-07-23T03:04:49;16.08;;;10.32;;
17991;SDS011;9121;50.926;5.340;2022-07-23T03:07:17;17.98;;;10.57;;
17991;SDS011;9121;50.926;5.340;2022-07-23T03:09:44;14.68;;;9.73;;
17991;SDS011;9121;50.926;5.340;2022-07-23T03:12:11;16.67;;;11.13;;
17991;SDS011;9121;50.926;5.340;2022-07-23T03:14:38;16.27;;;10.57;;
17991;SDS011;9121;50.926;5.340;2022-07-23T03:17:05;17.58;;;10.85;;
17991;SDS011;9121;50.926;5.340;2022-07-23T03:19:32;15.82;;;10.07;;
17991;SDS011;9121;50.926;5.340;2022-07-23T03:21:59;18.85;;;10.40;;
17991;SDS011;9121;50.926;5.340;2022-07-23T03:24:27;19.73;;;11.13;;
17991;SDS011;9121;50.926;5.340;2022-07-23T03:27:08;16.10;;;11.02;;
17991;SDS011;9121;50.926;5.340;2022-07-23T03:29:35;18.58;;;10.70;;
17991;SDS011;9121;50.926;5.340;2022-07-23T03:32:03;17.30;;;10.60;;
17991;SDS011;9121;50.926;5.340;2022-07-23T03:34:30;15.93;;;10.63;;
17991;SDS011;9121;50.926;5.340;2022-07-23T03:36:57;17.90;;;10.18;;
17991;SDS011;9121;50.926;5.340;2022-07-23T03:39:24;16.92;;;10.13;;
17991;SDS011;9121;50.926;5.340;2022-07-23T03:41:52;16.67;;;10.45;;
17991;SDS011;9121;50.926;5.340;2022-07-23T03:44:19;17.38;;;10.25;;
17991;SDS011;9121;50.926;5.340;2022-07-23T03:46:46;14.48;;;10.68;;
17991;SDS011;9121;50.926;5.340;2022-07-23T03:49:13;22.77;;;11.02;;
17991;SDS011;9121;50.926;5.340;2022-07-23T03:51:40;19.10;;;11.23;;
17991;SDS011;9121;50.926;5.340;2022-07-23T03:54:07;21.25;;;12.00;;
17991;SDS011;9121;50.926;5.340;2022-07-23T03:56:34;18.90;;;12.20;;
17991;SDS011;9121;50.926;5.340;2022-07-23T03:59:02;22.77;;;11.82;;
17991;SDS011;9121;50.926;5.340;2022-07-23T04:01:29;23.25;;;12.18;;
17991;SDS011;9121;50.926;5.340;2022-07-23T04:03:56;18.30;;;11.88;;
17991;SDS011;9121;50.926;5.340;2022-07-23T04:06:23;17.08;;;11.50;;
17991;SDS011;9121;50.926;5.340;2022-07-23T04:08:50;19.63;;;11.48;;
17991;SDS011;9121;50.926;5.340;2022-07-23T04:11:17;15.35;;;10.95;;
17991;SDS011;9121;50.926;5.340;2022-07-23T04:13:44;18.15;;;11.45;;
17991;SDS011;9121;50.926;5.340;2022-07-23T04:16:12;26.25;;;11.63;;
17991;SDS011;9121;50.926;5.340;2022-07-23T04:18:39;18.80;;;11.02;;
17991;SDS011;9121;50.926;5.340;2022-07-23T04:21:07;21.88;;;11.90;;
17991;SDS011;9121;50.926;5.340;2022-07-23T04:23:33;19.08;;;11.23;;
17991;SDS011;9121;50.926;5.340;2022-07-23T04:26:01;25.00;;;11.40;;
17991;SDS011;9121;50.926;5.340;2022-07-23T04:28:28;20.10;;;11.55;;
17991;SDS011;9121;50.926;5.340;2022-07-23T04:30:55;22.48;;;11.77;;
17991;SDS011;9121;50.926;5.340;2022-07-23T04:33:24;21.77;;;11.25;;
17991;SDS011;9121;50.926;5.340;2022-07-23T04:35:51;17.63;;;11.20;;
17991;SDS011;9121;50.926;5.340;2022-07-23T04:38:18;24.17;;;11.05;;
17991;SDS011;9121;50.926;5.340;2022-07-23T04:40:45;19.45;;;12.23;;
17991;SDS011;9121;50.926;5.340;2022-07-23T04:43:11;18.40;;;10.80;;
17991;SDS011;9121;50.926;5.340;2022-07-23T04:45:38;17.58;;;11.30;;
17991;SDS011;9121;50.926;5.340;2022-07-23T04:48:05;18.50;;;10.80;;
17991;SDS011;9121;50.926;5.340;2022-07-23T04:50:34;18.63;;;11.15;;
17991;SDS011;9121;50.926;5.340;2022-07-23T04:53:01;18.92;;;10.18;;
17991;SDS011;9121;50.926;5.340;2022-07-23T04:55:28;19.05;;;10.65;;
17991;SDS011;9121;50.926;5.340;2022-07-23T04:57:55;15.63;;;10.73;;
17991;SDS011;9121;50.926;5.340;2022-07-23T05:00:22;16.00;;;10.82;;
17991;SDS011;9121;50.926;5.340;2022-07-23T05:02:49;19.42;;;10.48;;
17991;SDS011;9121;50.926;5.340;2022-07-23T05:05:15;15.93;;;11.18;;
17991;SDS011;9121;50.926;5.340;2022-07-23T05:07:44;19.02;;;10.73;;
17991;SDS011;9121;50.926;5.340;2022-07-23T05:10:11;17.73;;;10.52;;
17991;SDS011;9121;50.926;5.340;2022-07-23T05:12:38;18.20;;;10.18;;
17991;SDS011;9121;50.926;5.340;2022-07-23T05:15:05;20.05;;;10.02;;
17991;SDS011;9121;50.926;5.340;2022-07-23T05:17:32;16.30;;;11.05;;
17991;SDS011;9121;50.926;5.340;2022-07-23T05:19:59;18.63;;;11.43;;
17991;SDS011;9121;50.926;5.340;2022-07-23T05:22:26;17.90;;;9.90;;
17991;SDS011;9121;50.926;5.340;2022-07-23T05:24:54;15.85;;;10.52;;
17991;SDS011;9121;50.926;5.340;2022-07-23T05:27:21;15.93;;;10.30;;
17991;SDS011;9121;50.926;5.340;2022-07-23T05:29:48;14.50;;;10.82;;
17991;SDS011;9121;50.926;5.340;2022-07-23T05:32:15;16.35;;;10.77;;
17991;SDS011;9121;50.926;5.340;2022-07-23T05:34:42;18.73;;;10.20;;
17991;SDS011;9121;50.926;5.340;2022-07-23T05:37:11;19.98;;;11.05;;
17991;SDS011;9121;50.926;5.340;2022-07-23T05:39:38;13.38;;;10.35;;
17991;SDS011;9121;50.926;5.340;2022-07-23T05:42:06;23.77;;;10.63;;
17991;SDS011;9121;50.926;5.340;2022-07-23T05:44:33;18.83;;;10.82;;
17991;SDS011;9121;50.926;5.340;2022-07-23T05:47:00;15.20;;;10.07;;
17991;SDS011;9121;50.926;5.340;2022-07-23T05:49:27;18.13;;;11.05;;
17991;SDS011;9121;50.926;5.340;2022-07-23T05:51:58;22.08;;;10.20;;
17991;SDS011;9121;50.926;5.340;2022-07-23T05:54:24;18.27;;;10.25;;
17991;SDS011;9121;50.926;5.340;2022-07-23T05:56:51;16.25;;;10.93;;
17991;SDS011;9121;50.926;5.340;2022-07-23T05:59:20;17.00;;;10.25;;
17991;SDS011;9121;50.926;5.340;2022-07-23T06:01:47;15.15;;;10.98;;
17991;SDS011;9121;50.926;5.340;2022-07-23T06:04:14;17.67;;;10.77;;
17991;SDS011;9121;50.926;5.340;2022-07-23T06:06:40;15.73;;;10.20;;
17991;SDS011;9121;50.926;5.340;2022-07-23T06:09:07;15.98;;;10.50;;
17991;SDS011;9121;50.926;5.340;2022-07-23T06:11:35;17.77;;;11.00;;
17991;SDS011;9121;50.926;5.340;2022-07-23T06:14:02;15.68;;;10.68;;
17991;SDS011;9121;50.926;5.340;2022-07-23T06:16:31;15.70;;;10.77;;
17991;SDS011;9121;50.926;5.340;2022-07-23T06:18:58;14.95;;;11.07;;
17991;SDS011;9121;50.926;5.340;2022-07-23T06:21:25;15.13;;;10.15;;
17991;SDS011;9121;50.926;5.340;2022-07-23T06:23:52;14.80;;;10.23;;
17991;SDS011;9121;50.926;5.340;2022-07-23T06:26:18;14.95;;;10.23;;
17991;SDS011;9121;50.926;5.340;2022-07-23T06:28:45;13.13;;;10.68;;
17991;SDS011;9121;50.926;5.340;2022-07-23T06:31:12;17.05;;;10.23;;
17991;SDS011;9121;50.926;5.340;2022-07-23T06:33:40;19.92;;;11.60;;
17991;SDS011;9121;50.926;5.340;2022-07-23T06:36:07;20.02;;;10.98;;
17991;SDS011;9121;50.926;5.340;2022-07-23T06:38:35;17.70;;;10.68;;
17991;SDS011;9121;50.926;5.340;2022-07-23T06:41:02;18.50;;;11.00;;
17991;SDS011;9121;50.926;5.340;2022-07-23T06:43:29;17.98;;;10.82;;
17991;SDS011;9121;50.926;5.340;2022-07-23T06:45:57;20.13;;;11.93;;
17991;SDS011;9121;50.926;5.340;2022-07-23T06:48:24;16.73;;;12.10;;
17991;SDS011;9121;50.926;5.340;2022-07-23T06:50:52;20.70;;;11.35;;
17991;SDS011;9121;50.926;5.340;2022-07-23T06:53:19;20.00;;;11.05;;
17991;SDS011;9121;50.926;5.340;2022-07-23T06:55:47;16.42;;;11.05;;
17991;SDS011;9121;50.926;5.340;2022-07-23T06:58:13;15.45;;;10.32;;
17991;SDS011;9121;50.926;5.340;2022-07-23T07:00:41;17.77;;;10.70;;
17991;SDS011;9121;50.926;5.340;2022-07-23T07:03:08;19.67;;;11.60;;
17991;SDS011;9121;50.926;5.340;2022-07-23T07:05:35;17.52;;;10.75;;
17991;SDS011;9121;50.926;5.340;2022-07-23T07:08:03;18.35;;;11.88;;
17991;SDS011;9121;50.926;5.340;2022-07-23T07:10:30;19.27;;;11.98;;
17991;SDS011;9121;50.926;5.340;2022-07-23T07:12:57;18.48;;;11.68;;
17991;SDS011;9121;50.926;5.340;2022-07-23T07:15:24;20.52;;;11.43;;
17991;SDS011;9121;50.926;5.340;2022-07-23T07:17:51;19.80;;;11.63;;
17991;SDS011;9121;50.926;5.340;2022-07-23T07:20:18;17.02;;;11.38;;
17991;SDS011;9121;50.926;5.340;2022-07-23T07:22:45;17.85;;;11.35;;
17991;SDS011;9121;50.926;5.340;2022-07-23T07:25:13;18.88;;;11.85;;
17991;SDS011;9121;50.926;5.340;2022-07-23T07:27:40;15.50;;;11.20;;
17991;SDS011;9121;50.926;5.340;2022-07-23T07:30:09;17.40;;;11.00;;
17991;SDS011;9121;50.926;5.340;2022-07-23T07:32:37;18.40;;;12.05;;
17991;SDS011;9121;50.926;5.340;2022-07-23T07:35:04;18.48;;;11.45;;
17991;SDS011;9121;50.926;5.340;2022-07-23T07:37:32;17.60;;;12.07;;
17991;SDS011;9121;50.926;5.340;2022-07-23T07:39:59;16.70;;;10.25;;
17991;SDS011;9121;50.926;5.340;2022-07-23T07:42:27;16.70;;;10.85;;
17991;SDS011;9121;50.926;5.340;2022-07-23T07:44:54;17.15;;;10.23;;
17991;SDS011;9121;50.926;5.340;2022-07-23T07:47:21;14.07;;;9.35;;
17991;SDS011;9121;50.926;5.340;2022-07-23T07:49:48;14.27;;;9.82;;
17991;SDS011;9121;50.926;5.340;2022-07-23T07:52:15;18.58;;;10.15;;
17991;SDS011;9121;50.926;5.340;2022-07-23T07:54:42;17.45;;;9.30;;
17991;SDS011;9121;50.926;5.340;2022-07-23T07:57:09;15.43;;;9.02;;
17991;SDS011;9121;50.926;5.340;2022-07-23T07:59:37;15.95;;;10.30;;
17991;SDS011;9121;50.926;5.340;2022-07-23T08:02:04;16.80;;;10.75;;
17991;SDS011;9121;50.926;5.340;2022-07-23T08:04:31;16.27;;;10.15;;
17991;SDS011;9121;50.926;5.340;2022-07-23T08:06:58;15.18;;;9.23;;
17991;SDS011;9121;50.926;5.340;2022-07-23T08:09:27;15.68;;;9.10;;
17991;SDS011;9121;50.926;5.340;2022-07-23T08:11:54;17.92;;;8.90;;
17991;SDS011;9121;50.926;5.340;2022-07-23T08:14:20;14.63;;;9.05;;
17991;SDS011;9121;50.926;5.340;2022-07-23T08:16:49;12.55;;;8.57;;
17991;SDS011;9121;50.926;5.340;2022-07-23T08:19:16;21.33;;;10.18;;
17991;SDS011;9121;50.926;5.340;2022-07-23T08:21:42;12.82;;;8.65;;
17991;SDS011;9121;50.926;5.340;2022-07-23T08:24:09;27.25;;;9.95;;
17991;SDS011;9121;50.926;5.340;2022-07-23T08:26:36;15.50;;;8.63;;
17991;SDS011;9121;50.926;5.340;2022-07-23T08:29:03;13.63;;;8.88;;
17991;SDS011;9121;50.926;5.340;2022-07-23T08:31:30;12.63;;;8.40;;
17991;SDS011;9121;50.926;5.340;2022-07-23T08:34:00;16.50;;;9.50;;
17991;SDS011;9121;50.926;5.340;2022-07-23T08:36:27;14.27;;;8.80;;
17991;SDS011;9121;50.926;5.340;2022-07-23T08:38:57;17.65;;;8.57;;
17991;SDS011;9121;50.926;5.340;2022-07-23T08:41:24;12.60;;;8.63;;
17991;SDS011;9121;50.926;5.340;2022-07-23T08:43:51;16.45;;;9.02;;
17991;SDS011;9121;50.926;5.340;2022-07-23T08:46:18;21.50;;;10.30;;
17991;SDS011;9121;50.926;5.340;2022-07-23T08:48:47;15.38;;;9.35;;
17991;SDS011;9121;50.926;5.340;2022-07-23T08:51:16;12.55;;;8.20;;
17991;SDS011;9121;50.926;5.340;2022-07-23T08:53:44;13.77;;;8.82;;
17991;SDS011;9121;50.926;5.340;2022-07-23T08:56:11;14.65;;;8.82;;
17991;SDS011;9121;50.926;5.340;2022-07-23T08:58:38;13.45;;;8.50;;
17991;SDS011;9121;50.926;5.340;2022-07-23T09:01:05;13.27;;;8.80;;
17991;SDS011;9121;50.926;5.340;2022-07-23T09:03:32;15.40;;;8.25;;
17991;SDS011;9121;50.926;5.340;2022-07-23T09:06:01;15.68;;;8.38;;
17991;SDS011;9121;50.926;5.340;2022-07-23T09:08:35;23.60;;;8.88;;
17991;SDS011;9121;50.926;5.340;2022-07-23T09:11:03;17.13;;;8.18;;
17991;SDS011;9121;50.926;5.340;2022-07-23T09:13:32;13.93;;;9.20;;
17991;SDS011;9121;50.926;5.340;2022-07-23T09:16:02;15.27;;;9.15;;
17991;SDS011;9121;50.926;5.340;2022-07-23T09:18:32;17.33;;;10.07;;
17991;SDS011;9121;50.926;5.340;2022-07-23T09:23:53;15.55;;;8.60;;
17991;SDS011;9121;50.926;5.340;2022-07-23T09:26:23;16.75;;;8.75;;
17991;SDS011;9121;50.926;5.340;2022-07-23T09:28:56;14.82;;;9.38;;
17991;SDS011;9121;50.926;5.340;2022-07-23T09:31:25;11.05;;;8.25;;
17991;SDS011;9121;50.926;5.340;2022-07-23T09:36:47;11.32;;;7.47;;
17991;SDS011;9121;50.926;5.340;2022-07-23T09:39:24;15.82;;;7.57;;
17991;SDS011;9121;50.926;5.340;2022-07-23T09:41:53;13.45;;;7.43;;
17991;SDS011;9121;50.926;5.340;2022-07-23T09:44:20;11.95;;;8.20;;
17991;SDS011;9121;50.926;5.340;2022-07-23T09:46:47;13.85;;;7.50;;
17991;SDS011;9121;50.926;5.340;2022-07-23T09:49:16;11.13;;;7.60;;
17991;SDS011;9121;50.926;5.340;2022-07-23T09:51:46;12.27;;;7.18;;
17991;SDS011;9121;50.926;5.340;2022-07-23T09:54:24;14.18;;;7.88;;
17991;SDS011;9121;50.926;5.340;2022-07-23T09:56:54;11.20;;;7.30;;
17991;SDS011;9121;50.926;5.340;2022-07-23T09:59:23;11.05;;;6.30;;
17991;SDS011;9121;50.926;5.340;2022-07-23T10:01:51;18.05;;;7.30;;
17991;SDS011;9121;50.926;5.340;2022-07-23T10:04:20;12.48;;;6.65;;
17991;SDS011;9121;50.926;5.340;2022-07-23T10:06:48;10.18;;;5.82;;
17991;SDS011;9121;50.926;5.340;2022-07-23T10:09:26;11.15;;;6.60;;
17991;SDS011;9121;50.926;5.340;2022-07-23T10:11:57;11.10;;;6.35;;
17991;SDS011;9121;50.926;5.340;2022-07-23T10:14:37;7.95;;;5.95;;
17991;SDS011;9121;50.926;5.340;2022-07-23T10:17:05;9.57;;;6.00;;
17991;SDS011;9121;50.926;5.340;2022-07-23T10:19:32;9.35;;;5.60;;
17991;SDS011;9121;50.926;5.340;2022-07-23T10:22:00;9.82;;;6.32;;
17991;SDS011;9121;50.926;5.340;2022-07-23T10:24:36;13.75;;;6.05;;
17991;SDS011;9121;50.926;5.340;2022-07-23T10:27:33;8.35;;;5.80;;
17991;SDS011;9121;50.926;5.340;2022-07-23T10:30:20;9.52;;;5.80;;
17991;SDS011;9121;50.926;5.340;2022-07-23T10:32:59;9.52;;;5.18;;
17991;SDS011;9121;50.926;5.340;2022-07-23T10:35:41;8.05;;;6.32;;
17991;SDS011;9121;50.926;5.340;2022-07-23T10:38:18;9.85;;;5.93;;
17991;SDS011;9121;50.926;5.340;2022-07-23T10:40:54;9.68;;;6.38;;
17991;SDS011;9121;50.926;5.340;2022-07-23T10:43:22;9.57;;;5.70;;
17991;SDS011;9121;50.926;5.340;2022-07-23T10:45:50;9.70;;;5.15;;
17991;SDS011;9121;50.926;5.340;2022-07-23T10:48:17;9.73;;;6.28;;
17991;SDS011;9121;50.926;5.340;2022-07-23T10:59:30;7.50;;;4.88;;
17991;SDS011;9121;50.926;5.340;2022-07-23T11:04:51;7.63;;;4.85;;
17991;SDS011;9121;50.926;5.340;2022-07-23T11:07:18;11.75;;;3.65;;
17991;SDS011;9121;50.926;5.340;2022-07-23T11:09:46;11.80;;;4.70;;
17991;SDS011;9121;50.926;5.340;2022-07-23T11:12:32;6.45;;;4.43;;
17991;SDS011;9121;50.926;5.340;2022-07-23T11:15:03;9.05;;;4.28;;
17991;SDS011;9121;50.926;5.340;2022-07-23T11:17:32;6.88;;;3.90;;
17991;SDS011;9121;50.926;5.340;2022-07-23T11:20:14;6.28;;;3.75;;
17991;SDS011;9121;50.926;5.340;2022-07-23T11:22:47;6.07;;;3.80;;
17991;SDS011;9121;50.926;5.340;2022-07-23T11:25:31;8.23;;;3.42;;
17991;SDS011;9121;50.926;5.340;2022-07-23T11:28:09;8.45;;;3.70;;
17991;SDS011;9121;50.926;5.340;2022-07-23T11:30:41;7.78;;;3.70;;
17991;SDS011;9121;50.926;5.340;2022-07-23T11:33:16;5.95;;;3.83;;
17991;SDS011;9121;50.926;5.340;2022-07-23T11:35:46;6.75;;;4.38;;
17991;SDS011;9121;50.926;5.340;2022-07-23T11:38:14;6.68;;;3.80;;
17991;SDS011;9121;50.926;5.340;2022-07-23T11:40:43;5.25;;;3.00;;
17991;SDS011;9121;50.926;5.340;2022-07-23T11:43:12;3.20;;;2.70;;
17991;SDS011;9121;50.926;5.340;2022-07-23T11:45:41;7.45;;;3.20;;
17991;SDS011;9121;50.926;5.340;2022-07-23T11:48:17;4.07;;;3.17;;
17991;SDS011;9121;50.926;5.340;2022-07-23T11:50:46;8.63;;;3.83;;
17991;SDS011;9121;50.926;5.340;2022-07-23T11:53:13;6.25;;;3.20;;
17991;SDS011;9121;50.926;5.340;2022-07-23T11:55:47;5.50;;;3.10;;
17991;SDS011;9121;50.926;5.340;2022-07-23T11:58:13;4.65;;;2.60;;
17991;SDS011;9121;50.926;5.340;2022-07-23T12:00:42;4.53;;;3.47;;
17991;SDS011;9121;50.926;5.340;2022-07-23T12:03:09;8.05;;;2.92;;
17991;SDS011;9121;50.926;5.340;2022-07-23T12:05:36;4.20;;;2.85;;
17991;SDS011;9121;50.926;5.340;2022-07-23T12:08:05;4.13;;;2.53;;
17991;SDS011;9121;50.926;5.340;2022-07-23T12:10:34;4.38;;;2.33;;
17991;SDS011;9121;50.926;5.340;2022-07-23T12:13:07;6.47;;;2.60;;
17991;SDS011;9121;50.926;5.340;2022-07-23T12:15:37;4.50;;;2.33;;
17991;SDS011;9121;50.926;5.340;2022-07-23T12:18:08;5.13;;;2.13;;
17991;SDS011;9121;50.926;5.340;2022-07-23T12:20:38;3.55;;;1.80;;
17991;SDS011;9121;50.926;5.340;2022-07-23T12:23:08;3.75;;;1.90;;
17991;SDS011;9121;50.926;5.340;2022-07-23T12:25:36;5.82;;;1.80;;
17991;SDS011;9121;50.926;5.340;2022-07-23T12:28:05;5.05;;;2.65;;
17991;SDS011;9121;50.926;5.340;2022-07-23T12:30:34;2.92;;;2.15;;
17991;SDS011;9121;50.926;5.340;2022-07-23T12:33:04;4.43;;;1.80;;
17991;SDS011;9121;50.926;5.340;2022-07-23T12:35:34;3.97;;;1.90;;
17991;SDS011;9121;50.926;5.340;2022-07-23T12:38:05;2.50;;;1.88;;
17991;SDS011;9121;50.926;5.340;2022-07-23T12:40:34;1.58;;;1.48;;
17991;SDS011;9121;50.926;5.340;2022-07-23T12:43:03;10.40;;;2.40;;
17991;SDS011;9121;50.926;5.340;2022-07-23T12:45:42;1.95;;;1.75;;
17991;SDS011;9121;50.926;5.340;2022-07-23T12:48:15;4.30;;;1.77;;
17991;SDS011;9121;50.926;5.340;2022-07-23T12:50:49;2.95;;;1.77;;
17991;SDS011;9121;50.926;5.340;2022-07-23T12:53:19;3.78;;;1.70;;
17991;SDS011;9121;50.926;5.340;2022-07-23T12:55:48;2.67;;;1.58;;
17991;SDS011;9121;50.926;5.340;2022-07-23T12:58:17;2.28;;;1.67;;
17991;SDS011;9121;50.926;5.340;2022-07-23T13:00:52;4.10;;;1.98;;
17991;SDS011;9121;50.926;5.340;2022-07-23T13:03:29;2.75;;;1.88;;
17991;SDS011;9121;50.926;5.340;2022-07-23T13:06:00;2.08;;;1.60;;
17991;SDS011;9121;50.926;5.340;2022-07-23T13:08:28;3.33;;;2.05;;
17991;SDS011;9121;50.926;5.340;2022-07-23T13:10:58;4.32;;;2.20;;
17991;SDS011;9121;50.926;5.340;2022-07-23T13:13:28;3.05;;;1.80;;
17991;SDS011;9121;50.926;5.340;2022-07-23T13:15:57;5.97;;;2.83;;
17991;SDS011;9121;50.926;5.340;2022-07-23T13:18:25;11.32;;;1.98;;
17991;SDS011;9121;50.926;5.340;2022-07-23T13:20:52;2.33;;;2.10;;
17991;SDS011;9121;50.926;5.340;2022-07-23T13:23:21;2.83;;;1.88;;
17991;SDS011;9121;50.926;5.340;2022-07-23T13:25:48;4.88;;;1.90;;
17991;SDS011;9121;50.926;5.340;2022-07-23T13:28:16;3.00;;;2.00;;
17991;SDS011;9121;50.926;5.340;2022-07-23T13:30:44;2.70;;;2.08;;
17991;SDS011;9121;50.926;5.340;2022-07-23T13:33:14;2.50;;;2.10;;
17991;SDS011;9121;50.926;5.340;2022-07-23T13:35:42;3.22;;;2.33;;
17991;SDS011;9121;50.926;5.340;2022-07-23T13:38:10;3.00;;;2.35;;
17991;SDS011;9121;50.926;5.340;2022-07-23T13:40:39;2.40;;;2.10;;
17991;SDS011;9121;50.926;5.340;2022-07-23T13:43:08;2.55;;;2.15;;
17991;SDS011;9121;50.926;5.340;2022-07-23T13:45:36;4.70;;;2.03;;
17991;SDS011;9121;50.926;5.340;2022-07-23T13:48:04;4.00;;;2.15;;
17991;SDS011;9121;50.926;5.340;2022-07-23T13:50:32;3.08;;;1.95;;
17991;SDS011;9121;50.926;5.340;2022-07-23T13:53:00;3.17;;;1.80;;
17991;SDS011;9121;50.926;5.340;2022-07-23T13:55:29;3.75;;;2.15;;
17991;SDS011;9121;50.926;5.340;2022-07-23T13:57:57;4.88;;;2.10;;
17991;SDS011;9121;50.926;5.340;2022-07-23T14:00:24;6.30;;;2.30;;
17991;SDS011;9121;50.926;5.340;2022-07-23T14:02:52;3.92;;;2.13;;
17991;SDS011;9121;50.926;5.340;2022-07-23T14:05:19;4.57;;;2.00;;
17991;SDS011;9121;50.926;5.340;2022-07-23T14:07:47;3.72;;;2.20;;
17991;SDS011;9121;50.926;5.340;2022-07-23T14:10:15;4.90;;;2.72;;
17991;SDS011;9121;50.926;5.340;2022-07-23T14:12:43;3.38;;;2.63;;
17991;SDS011;9121;50.926;5.340;2022-07-23T14:15:11;3.15;;;2.22;;
17991;SDS011;9121;50.926;5.340;2022-07-23T14:17:39;2.80;;;2.25;;
17991;SDS011;9121;50.926;5.340;2022-07-23T14:20:08;10.52;;;3.60;;
17991;SDS011;9121;50.926;5.340;2022-07-23T14:22:36;3.38;;;2.47;;
17991;SDS011;9121;50.926;5.340;2022-07-23T14:25:04;4.35;;;2.65;;
17991;SDS011;9121;50.926;5.340;2022-07-23T14:27:32;3.55;;;2.47;;
17991;SDS011;9121;50.926;5.340;2022-07-23T14:30:00;5.55;;;2.40;;
17991;SDS011;9121;50.926;5.340;2022-07-23T14:32:29;2.65;;;2.25;;
17991;SDS011;9121;50.926;5.340;2022-07-23T14:34:56;2.90;;;2.05;;
17991;SDS011;9121;50.926;5.340;2022-07-23T14:37:22;3.00;;;2.22;;
17991;SDS011;9121;50.926;5.340;2022-07-23T14:39:50;5.75;;;2.15;;
17991;SDS011;9121;50.926;5.340;2022-07-23T14:42:17;3.83;;;2.30;;
17991;SDS011;9121;50.926;5.340;2022-07-23T14:44:45;3.53;;;2.30;;
17991;SDS011;9121;50.926;5.340;2022-07-23T14:47:12;5.15;;;2.38;;
17991;SDS011;9121;50.926;5.340;2022-07-23T14:49:40;4.20;;;2.33;;
17991;SDS011;9121;50.926;5.340;2022-07-23T14:52:07;3.33;;;2.47;;
17991;SDS011;9121;50.926;5.340;2022-07-23T14:54:35;3.50;;;2.55;;
17991;SDS011;9121;50.926;5.340;2022-07-23T14:57:03;3.35;;;2.13;;
17991;SDS011;9121;50.926;5.340;2022-07-23T14:59:32;4.85;;;2.67;;
17991;SDS011;9121;50.926;5.340;2022-07-23T15:01:59;2.75;;;2.25;;
17991;SDS011;9121;50.926;5.340;2022-07-23T15:04:26;4.97;;;2.60;;
17991;SDS011;9121;50.926;5.340;2022-07-23T15:06:55;3.85;;;2.40;;
17991;SDS011;9121;50.926;5.340;2022-07-23T15:09:21;6.13;;;2.40;;